createdAt,value
2023-01-03T00:00:36.291Z,101801.19
2023-01-03T00:03:06.751Z,101809.78
2023-01-03T00:05:39.599Z,101819.88
2023-01-03T00:08:09.127Z,101829.44
2023-01-03T00:10:38.620Z,101835.44
2023-01-03T00:13:05.742Z,101846.56
2023-01-03T00:15:37.415Z,101836.50
2023-01-03T00:18:07.540Z,101853.25
2023-01-03T00:20:39.581Z,101851.06
2023-01-03T00:23:09.124Z,101866.03
2023-01-03T00:25:38.791Z,101869.72
2023-01-03T00:28:08.381Z,101881.75
2023-01-03T00:30:38.607Z,101878.16
2023-01-03T00:33:08.135Z,101885.72
2023-01-03T00:35:40.253Z,101899.91
2023-01-03T00:38:09.882Z,101891.84
2023-01-03T00:40:39.384Z,101910.25
2023-01-03T00:43:21.367Z,101900.25
2023-01-03T00:45:50.837Z,101914.06
2023-01-03T00:48:20.288Z,101916.47
2023-01-03T00:50:52.450Z,101917.25
2023-01-03T00:53:22.065Z,101920.59
2023-01-03T00:55:52.156Z,101928.63
2023-01-03T00:58:21.630Z,101927.59
2023-01-03T01:00:51.027Z,101927.47
2023-01-03T01:03:20.594Z,101933.31
2023-01-03T01:05:52.715Z,101935.50
2023-01-03T01:08:22.216Z,101937.19
2023-01-03T01:11:04.278Z,101946.97
2023-01-03T01:13:34.932Z,101952.47
2023-01-03T01:16:05.845Z,101953.88
2023-01-03T01:18:35.963Z,101964.84
2023-01-03T01:21:10.625Z,101966.88
2023-01-03T01:23:41.754Z,101969.28
2023-01-03T01:26:14.482Z,101962.88
2023-01-03T01:28:44.187Z,101966.59
2023-01-03T01:31:17.237Z,101970.41
2023-01-03T01:33:46.961Z,101970.91
2023-01-03T01:36:22.667Z,101974.09
2023-01-03T01:39:01.074Z,101980.72
2023-01-03T01:41:45.093Z,101978.66
2023-01-03T01:44:46.011Z,101975.41
2023-01-03T01:47:19.336Z,101981.44
2023-01-03T01:49:50.114Z,101989.56
2023-01-03T01:52:23.802Z,101990.66
2023-01-03T01:54:54.182Z,101989.78
2023-01-03T01:57:27.357Z,101989.94
2023-01-03T01:59:56.790Z,101997.59
2023-01-03T02:02:26.951Z,102004.97
2023-01-03T02:04:58.389Z,102002.88
2023-01-03T02:07:30.546Z,101996.13
2023-01-03T02:10:01.261Z,101996.59
2023-01-03T02:12:51.830Z,101995.09
2023-01-03T02:15:32.393Z,101996.13
2023-01-03T02:18:17.926Z,102003.53
2023-01-03T02:21:10.018Z,102002.22
2023-01-03T02:24:16.624Z,101996.19
2023-01-03T02:26:54.375Z,101999.13
2023-01-03T02:29:39.778Z,102001.81
2023-01-03T02:32:15.941Z,102004.06
2023-01-03T02:34:50.551Z,102007.25
2023-01-03T02:37:25.957Z,102011.31
2023-01-03T02:40:00.720Z,102006.69
2023-01-03T02:42:47.809Z,102009.69
2023-01-03T02:45:20.455Z,102010.06
2023-01-03T02:47:55.903Z,102007.34
2023-01-03T02:50:28.154Z,102002.31
2023-01-03T02:53:00.128Z,101993.94
2023-01-03T02:55:31.627Z,101986.38
2023-01-03T02:58:04.894Z,101985.81
2023-01-03T03:00:36.056Z,101972.03
2023-01-03T03:03:15.968Z,101970.25
2023-01-03T03:05:48.859Z,101971.78
2023-01-03T03:08:18.270Z,101958.47
2023-01-03T03:11:09.639Z,101956.81
2023-01-03T03:13:42.628Z,101954.09
2023-01-03T03:16:17.089Z,101944.41
2023-01-03T03:18:54.751Z,101942.59
2023-01-03T03:21:36.750Z,101936.94
2023-01-03T03:24:30.555Z,101935.88
2023-01-03T03:27:21.796Z,101935.22
2023-01-03T03:29:48.781Z,101938.94
2023-01-03T03:32:18.541Z,101944.84
2023-01-03T03:34:51.040Z,101946.91
2023-01-03T03:37:22.385Z,101938.69
2023-01-03T03:40:04.394Z,101943.50
2023-01-03T03:42:54.650Z,101948.63
2023-01-03T03:45:29.284Z,101950.72
2023-01-03T03:48:03.852Z,101949.53
2023-01-03T03:50:38.868Z,101957.94
2023-01-03T03:53:11.098Z,101957.06
2023-01-03T03:55:43.733Z,101957.38
2023-01-03T03:58:17.459Z,101956.34
2023-01-03T04:00:48.289Z,101962.66
2023-01-03T04:03:18.706Z,101967.28
2023-01-03T04:05:53.345Z,101964.00
2023-01-03T04:08:22.839Z,101959.53
2023-01-03T04:10:52.404Z,101963.59
2023-01-03T04:13:21.885Z,101961.50
2023-01-03T04:15:51.262Z,101962.88
2023-01-03T04:18:20.676Z,101967.81
2023-01-03T04:20:52.694Z,101958.97
2023-01-03T04:23:22.108Z,101966.34
2023-01-03T04:25:51.793Z,101958.69
2023-01-03T04:28:21.572Z,101965.28
2023-01-03T04:30:51.011Z,101968.59
2023-01-03T04:33:20.400Z,101969.06
2023-01-03T04:35:52.488Z,101968.31
2023-01-03T04:38:21.919Z,101967.56
2023-01-03T04:40:51.395Z,101968.31
2023-01-03T04:43:33.316Z,101970.84
2023-01-03T04:46:02.818Z,101965.00
2023-01-03T04:48:32.351Z,101967.41
2023-01-03T04:51:04.330Z,101968.31
2023-01-03T04:53:33.745Z,101968.91
2023-01-03T04:56:03.171Z,101967.38
2023-01-03T04:58:32.623Z,101974.25
2023-01-03T05:01:03.288Z,101981.78
2023-01-03T05:03:33.382Z,101982.50
2023-01-03T05:06:06.743Z,101979.09
2023-01-03T05:08:36.401Z,101980.88
2023-01-03T05:11:06.275Z,101987.75
2023-01-03T05:13:35.908Z,101986.25
2023-01-03T05:16:09.631Z,101987.44
2023-01-03T05:18:39.527Z,101997.34
2023-01-03T05:21:28.603Z,102010.50
2023-01-03T05:24:10.484Z,102013.81
2023-01-03T05:26:41.125Z,102019.22
2023-01-03T05:29:11.405Z,102029.25
2023-01-03T05:31:40.834Z,102038.09
2023-01-03T05:34:10.279Z,102037.06
2023-01-03T05:36:42.386Z,102043.47
2023-01-03T05:39:12.078Z,102051.41
2023-01-03T05:41:54.036Z,102054.13
2023-01-03T05:44:23.462Z,102056.66
2023-01-03T05:46:52.909Z,102061.16
2023-01-03T05:49:22.294Z,102053.38
2023-01-03T05:51:54.291Z,102062.97
2023-01-03T05:54:23.980Z,102077.66
2023-01-03T05:56:53.467Z,102081.66
2023-01-03T05:59:23.988Z,102087.53
2023-01-03T06:01:53.914Z,102093.22
2023-01-03T06:04:23.602Z,102087.25
2023-01-03T06:06:55.771Z,102090.81
2023-01-03T06:09:25.305Z,102096.69
2023-01-03T06:11:54.687Z,102100.75
2023-01-03T06:14:24.195Z,102104.00
2023-01-03T06:17:06.288Z,102100.44
2023-01-03T06:19:35.783Z,102114.81
2023-01-03T06:22:10.751Z,102109.44
2023-01-03T06:24:40.466Z,102110.19
2023-01-03T06:27:09.982Z,102108.50
2023-01-03T06:29:39.443Z,102110.63
2023-01-03T06:32:10.090Z,102106.56
2023-01-03T06:34:39.759Z,102112.13
2023-01-03T06:37:11.984Z,102109.72
2023-01-03T06:39:41.557Z,102116.91
2023-01-03T06:42:23.547Z,102116.16
2023-01-03T06:45:05.405Z,102124.72
2023-01-03T06:47:47.348Z,102129.81
2023-01-03T06:50:29.221Z,102136.41
2023-01-03T06:53:16.191Z,102145.41
2023-01-03T06:55:54.445Z,102151.69
2023-01-03T06:58:25.999Z,102155.13
2023-01-03T07:00:55.963Z,102162.16
2023-01-03T07:03:25.513Z,102163.66
2023-01-03T07:05:54.956Z,102163.81
2023-01-03T07:08:26.971Z,102160.53
2023-01-03T07:10:57.285Z,102163.81
2023-01-03T07:13:39.039Z,102175.19
2023-01-03T07:16:08.975Z,102173.56
2023-01-03T07:18:38.497Z,102177.28
2023-01-03T07:21:08.729Z,102186.41
2023-01-03T07:23:41.040Z,102187.00
2023-01-03T07:26:10.859Z,102193.31
2023-01-03T07:28:40.430Z,102190.75
2023-01-03T07:31:10.280Z,102196.59
2023-01-03T07:33:40.834Z,102200.34
2023-01-03T07:36:12.457Z,102213.81
2023-01-03T07:38:46.447Z,102214.09
2023-01-03T07:41:16.736Z,102217.56
2023-01-03T07:43:45.556Z,102226.81
2023-01-03T07:46:18.282Z,102227.56
2023-01-03T07:48:49.682Z,102236.41
2023-01-03T07:51:20.560Z,102232.84
2023-01-03T07:53:55.823Z,102240.34
2023-01-03T07:56:25.632Z,102246.03
2023-01-03T07:58:55.259Z,102250.50
2023-01-03T08:01:26.841Z,102251.53
2023-01-03T08:03:56.543Z,102251.53
2023-01-03T08:06:26.935Z,102259.50
2023-01-03T08:09:11.472Z,102268.59
2023-01-03T08:11:53.999Z,102279.09
2023-01-03T08:14:26.424Z,102280.50
2023-01-03T08:16:56.522Z,102279.84
2023-01-03T08:19:26.580Z,102280.13
2023-01-03T08:21:56.030Z,102280.88
2023-01-03T08:24:28.103Z,102285.09
2023-01-03T08:26:57.493Z,102291.66
2023-01-03T08:29:27.008Z,102285.81
2023-01-03T08:32:00.016Z,102292.44
2023-01-03T08:34:33.388Z,102291.22
2023-01-03T08:37:04.365Z,102297.97
2023-01-03T08:39:37.860Z,102302.47
2023-01-03T08:42:09.844Z,102303.34
2023-01-03T08:44:39.636Z,102297.91
2023-01-03T08:47:09.474Z,102296.00
2023-01-03T08:49:39.296Z,102298.25
2023-01-03T08:52:08.733Z,102302.72
2023-01-03T08:54:41.213Z,102297.19
2023-01-03T08:57:10.629Z,102294.53
2023-01-03T08:59:40.080Z,102292.28
2023-01-03T09:02:09.766Z,102290.66
2023-01-03T09:04:39.362Z,102288.69
2023-01-03T09:07:08.747Z,102290.78
2023-01-03T09:09:41.188Z,102275.63
2023-01-03T09:12:10.728Z,102276.72
2023-01-03T09:14:40.138Z,102275.03
2023-01-03T09:17:09.597Z,102275.66
2023-01-03T09:19:39.040Z,102276.88
2023-01-03T09:22:08.471Z,102266.56
2023-01-03T09:24:40.479Z,102268.53
2023-01-03T09:27:09.919Z,102262.25
2023-01-03T09:29:39.320Z,102273.38
2023-01-03T09:32:08.934Z,102266.31
2023-01-03T09:34:38.388Z,102272.34
2023-01-03T09:37:07.923Z,102281.19
2023-01-03T09:39:40.639Z,102276.38
2023-01-03T09:42:23.251Z,102297.09
2023-01-03T09:44:52.678Z,102306.38
2023-01-03T09:47:24.598Z,102308.63
2023-01-03T09:52:58.101Z,102338.50
2023-01-03T09:55:46.147Z,102341.50
2023-01-03T09:58:29.233Z,102349.91
2023-01-03T10:01:12.312Z,102368.19
2023-01-03T10:03:52.363Z,102375.09
2023-01-03T10:06:29.445Z,102380.50
2023-01-03T10:09:07.776Z,102388.59
2023-01-03T10:11:48.588Z,102392.34
2023-01-03T10:14:28.335Z,102398.66
2023-01-03T10:17:03.996Z,102393.28
2023-01-03T10:19:45.970Z,102409.00
2023-01-03T10:22:19.139Z,102399.09
2023-01-03T10:24:50.509Z,102413.22
2023-01-03T10:27:25.229Z,102401.53
2023-01-03T10:29:57.062Z,102419.97
2023-01-03T10:32:45.411Z,102421.94
2023-01-03T10:35:21.631Z,102412.91
2023-01-03T10:37:53.753Z,102411.13
2023-01-03T10:40:24.045Z,102401.97
2023-01-03T10:42:56.456Z,102399.09
2023-01-03T10:45:25.994Z,102397.63
2023-01-03T10:48:01.725Z,102407.81
2023-01-03T10:50:32.014Z,102399.09
2023-01-03T10:53:02.498Z,102402.41
2023-01-03T10:55:31.903Z,102414.25
2023-01-03T10:58:06.339Z,102407.06
2023-01-03T11:00:37.027Z,102405.88
2023-01-03T11:03:18.303Z,102408.38
2023-01-03T11:05:50.159Z,102404.50
2023-01-03T11:08:23.121Z,102404.47
2023-01-03T11:10:58.302Z,102405.97
2023-01-03T11:13:35.556Z,102402.97
2023-01-03T11:16:06.521Z,102409.28
2023-01-03T11:18:35.983Z,102413.78
2023-01-03T11:21:12.393Z,102411.63
2023-01-03T11:24:00.386Z,102410.69
2023-01-03T11:26:43.558Z,102412.09
2023-01-03T11:29:36.874Z,102416.03
2023-01-03T11:32:16.603Z,102426.00
2023-01-03T11:37:52.558Z,102417.88
2023-01-03T11:40:28.924Z,102427.16
2023-01-03T11:43:06.104Z,102425.97
2023-01-03T11:46:01.147Z,102426.81
2023-01-03T11:48:52.542Z,102425.59
2023-01-03T11:51:28.592Z,102434.53
2023-01-03T11:54:05.502Z,102440.94
2023-01-03T11:56:37.383Z,102441.56
2023-01-03T11:59:17.991Z,102438.66
2023-01-03T12:02:39.697Z,102448.13
2023-01-03T12:05:21.621Z,102446.56
2023-01-03T12:07:56.429Z,102454.66
2023-01-03T12:10:29.268Z,102459.72
2023-01-03T12:13:22.617Z,102465.19
2023-01-03T12:15:59.023Z,102464.34
2023-01-03T12:18:38.947Z,102465.84
2023-01-03T12:21:13.649Z,102476.00
2023-01-03T12:23:46.285Z,102466.50
2023-01-03T12:26:18.101Z,102475.25
2023-01-03T12:28:51.344Z,102471.22
2023-01-03T12:31:31.072Z,102469.06
2023-01-03T12:34:08.344Z,102476.03
2023-01-03T12:36:43.827Z,102487.50
2023-01-03T12:39:32.690Z,102474.19
2023-01-03T12:42:06.786Z,102479.59
2023-01-03T12:44:39.896Z,102476.06
2023-01-03T12:47:14.396Z,102481.84
2023-01-03T12:49:51.860Z,102474.09
2023-01-03T12:52:21.979Z,102481.34
2023-01-03T12:54:56.075Z,102469.16
2023-01-03T12:57:45.406Z,102475.44
2023-01-03T13:00:23.866Z,102474.28
2023-01-03T13:02:56.144Z,102473.19
2023-01-03T13:05:31.396Z,102476.56
2023-01-03T13:08:10.033Z,102465.06
2023-01-03T13:10:41.255Z,102461.22
2023-01-03T13:13:17.628Z,102466.75
2023-01-03T13:15:48.379Z,102479.34
2023-01-03T13:18:32.996Z,102510.78
2023-01-03T13:21:39.789Z,102519.81
2023-01-03T13:24:10.407Z,102521.41
2023-01-03T13:26:39.838Z,102522.91
2023-01-03T13:29:45.795Z,102523.31
2023-01-03T13:32:20.571Z,102519.09
2023-01-03T13:35:22.586Z,102526.69
2023-01-03T13:37:54.924Z,102518.94
2023-01-03T13:40:51.934Z,102521.94
2023-01-03T13:43:20.762Z,102530.63
2023-01-03T13:45:57.590Z,102535.78
2023-01-03T13:48:40.568Z,102531.84
2023-01-03T13:51:29.050Z,102528.97
2023-01-03T13:54:03.750Z,102540.94
2023-01-03T13:56:34.744Z,102531.38
2023-01-03T13:59:09.744Z,102538.66
2023-01-03T14:01:57.887Z,102550.81
2023-01-03T14:04:54.107Z,102540.25
2023-01-03T14:07:42.638Z,102543.50
2023-01-03T14:10:43.264Z,102546.13
2023-01-03T14:13:33.754Z,102546.47
2023-01-03T14:16:22.683Z,102543.59
2023-01-03T14:19:00.927Z,102523.28
2023-01-03T14:21:39.102Z,102531.78
2023-01-03T14:24:09.692Z,102523.59
2023-01-03T14:26:41.792Z,102517.19
2023-01-03T14:29:13.052Z,102509.34
2023-01-03T14:31:48.592Z,102507.00
2023-01-03T14:34:24.627Z,102505.81
2023-01-03T14:36:54.156Z,102507.91
2023-01-03T14:42:05.140Z,102500.28
2023-01-03T14:44:35.077Z,102501.03
2023-01-03T14:47:07.088Z,102495.84
2023-01-03T14:49:44.207Z,102489.81
2023-01-03T14:52:20.322Z,102481.53
2023-01-03T14:54:51.918Z,102459.50
2023-01-03T14:57:26.868Z,102402.22
2023-01-03T14:59:58.046Z,102397.44
2023-01-03T15:02:28.011Z,102403.22
2023-01-03T15:04:59.322Z,102423.09
2023-01-03T15:07:35.165Z,102433.59
2023-01-03T15:10:16.418Z,102442.94
2023-01-03T15:12:50.257Z,102445.00
2023-01-03T15:15:24.068Z,102454.56
2023-01-03T15:17:56.257Z,102467.09
2023-01-03T15:20:32.552Z,102455.03
2023-01-03T15:23:02.150Z,102469.78
2023-01-03T15:25:35.634Z,102458.28
2023-01-03T15:28:26.682Z,102453.88
2023-01-03T15:30:58.178Z,102460.19
2023-01-03T15:33:34.923Z,102460.06
2023-01-03T15:36:12.012Z,102457.41
2023-01-03T15:38:47.596Z,102450.06
2023-01-03T15:41:39.368Z,102449.00
2023-01-03T15:44:10.331Z,102435.66
2023-01-03T15:46:41.088Z,102437.66
2023-01-03T15:49:12.320Z,102436.94
2023-01-03T15:51:41.780Z,102428.44
2023-01-03T15:54:15.718Z,102428.13
2023-01-03T15:56:50.865Z,102410.16
2023-01-03T15:59:25.762Z,102397.09
2023-01-03T16:01:55.670Z,102386.78
2023-01-03T16:04:25.211Z,102372.81
2023-01-03T16:06:56.025Z,102357.00
2023-01-03T16:09:25.555Z,102350.81
2023-01-03T16:11:59.774Z,102336.28
2023-01-03T16:14:36.633Z,102331.47
2023-01-03T16:17:06.846Z,102318.22
2023-01-03T16:19:37.022Z,102308.97
2023-01-03T16:22:33.804Z,102296.19
2023-01-03T16:24:56.803Z,102292.69
2023-01-03T16:27:26.941Z,102277.34
2023-01-03T16:29:59.309Z,102271.00
2023-01-03T16:32:30.603Z,102254.69
2023-01-03T16:35:02.559Z,102264.00
2023-01-03T16:37:32.085Z,102256.19
2023-01-03T16:40:01.685Z,102252.00
2023-01-03T16:42:31.219Z,102251.53
2023-01-03T16:45:03.324Z,102233.13
2023-01-03T16:47:35.038Z,102231.06
2023-01-03T16:50:08.135Z,102231.41
2023-01-03T16:52:39.664Z,102220.97
2023-01-03T16:55:17.035Z,102216.28
2023-01-03T16:57:52.128Z,102220.75
2023-01-03T17:00:29.661Z,102200.78
2023-01-03T17:03:00.213Z,102187.50
2023-01-03T17:05:31.186Z,102170.69
2023-01-03T17:08:05.138Z,102168.13
2023-01-03T17:10:36.958Z,102162.75
2023-01-03T17:13:12.425Z,102176.53
2023-01-03T17:15:45.156Z,102181.09
2023-01-03T17:18:20.403Z,102167.56
2023-01-03T17:20:52.251Z,102182.41
2023-01-03T17:23:21.853Z,102171.94
2023-01-03T17:25:51.850Z,102171.84
2023-01-03T17:28:21.530Z,102172.69
2023-01-03T17:30:56.722Z,102166.91
2023-01-03T17:33:33.620Z,102169.75
2023-01-03T17:36:03.757Z,102164.88
2023-01-03T17:38:34.113Z,102149.94
2023-01-03T17:41:03.544Z,102148.28
2023-01-03T17:43:33.081Z,102150.22
2023-01-03T17:46:23.610Z,102141.63
2023-01-03T17:49:14.883Z,102134.31
2023-01-03T17:51:44.498Z,102134.66
2023-01-03T17:54:16.069Z,102123.81
2023-01-03T17:56:47.441Z,102131.34
2023-01-03T17:59:17.724Z,102121.88
2023-01-03T18:01:52.175Z,102113.97
2023-01-03T18:04:22.117Z,102114.34
2023-01-03T18:06:56.364Z,102110.25
2023-01-03T18:09:27.219Z,102105.78
2023-01-03T18:11:56.860Z,102096.44
2023-01-03T18:14:26.305Z,102084.72
2023-01-03T18:16:58.433Z,102077.28
2023-01-03T18:19:27.885Z,102075.72
2023-01-03T18:21:58.387Z,102063.97
2023-01-03T18:24:31.152Z,102049.41
2023-01-03T18:27:00.598Z,102050.56
2023-01-03T18:29:30.200Z,102052.06
2023-01-03T18:32:02.394Z,102039.69
2023-01-03T18:34:31.865Z,102036.59
2023-01-03T18:37:01.595Z,102029.06
2023-01-03T18:39:32.165Z,102027.78
2023-01-03T18:42:21.804Z,102034.56
2023-01-03T18:44:51.368Z,102028.31
2023-01-03T18:47:23.375Z,102028.94
2023-01-03T18:49:52.984Z,102028.28
2023-01-03T18:52:26.186Z,102022.25
2023-01-03T18:54:56.409Z,102022.00
2023-01-03T18:57:26.191Z,102015.72
2023-01-03T18:59:55.669Z,102010.88
2023-01-03T19:02:28.685Z,101998.84
2023-01-03T19:04:58.460Z,101994.75
2023-01-03T19:07:32.514Z,101991.66
2023-01-03T19:10:02.513Z,101975.84
2023-01-03T19:12:34.868Z,101939.88
2023-01-03T19:15:04.396Z,101942.13
2023-01-03T19:17:36.541Z,101955.72
2023-01-03T19:20:06.261Z,101973.25
2023-01-03T19:22:35.963Z,101993.06
2023-01-03T19:25:08.979Z,101997.81
2023-01-03T19:27:40.919Z,101995.66
2023-01-03T19:30:19.171Z,101991.91
2023-01-03T19:32:54.473Z,101982.22
2023-01-03T19:35:24.812Z,101980.97
2023-01-03T19:37:54.560Z,101981.50
2023-01-03T19:40:25.773Z,101962.28
2023-01-03T19:42:57.619Z,101953.56
2023-01-03T19:45:29.493Z,101949.94
2023-01-03T19:48:03.628Z,101951.66
2023-01-03T19:50:34.721Z,101945.88
2023-01-03T19:53:06.251Z,101943.03
2023-01-03T19:55:37.755Z,101931.44
2023-01-03T19:58:08.439Z,101936.97
2023-01-03T20:00:37.891Z,101935.56
2023-01-03T20:03:10.759Z,101931.69
2023-01-03T20:05:40.355Z,101939.66
2023-01-03T20:08:12.579Z,101939.06
2023-01-03T20:10:44.861Z,101936.50
2023-01-03T20:13:19.131Z,101925.03
2023-01-03T20:15:50.559Z,101927.34
2023-01-03T20:18:30.782Z,101921.19
2023-01-03T20:21:02.263Z,101920.84
2023-01-03T20:23:34.457Z,101918.25
2023-01-03T20:26:04.067Z,101924.63
2023-01-03T20:28:33.624Z,101917.88
2023-01-03T20:31:04.198Z,101911.09
2023-01-03T20:33:36.299Z,101913.16
2023-01-03T20:36:16.320Z,101902.19
2023-01-03T20:38:50.449Z,101890.16
2023-01-03T20:41:21.350Z,101879.91
2023-01-03T20:43:52.322Z,101870.75
2023-01-03T20:46:23.287Z,101867.03
2023-01-03T20:48:58.481Z,101865.16
2023-01-03T20:51:29.262Z,101870.38
2023-01-03T20:53:58.841Z,101855.19
2023-01-03T20:56:29.317Z,101853.88
2023-01-03T20:58:58.865Z,101853.78
2023-01-03T21:01:28.418Z,101840.47
2023-01-03T21:04:00.830Z,101850.44
2023-01-03T21:06:30.462Z,101850.00
2023-01-03T21:08:58.198Z,101837.72
2023-01-03T21:11:29.636Z,101825.72
2023-01-03T21:14:00.308Z,101820.81
2023-01-03T21:16:35.582Z,101810.09
2023-01-03T21:19:09.902Z,101798.84
2023-01-03T21:21:39.389Z,101795.38
2023-01-03T21:24:09.613Z,101795.13
2023-01-03T21:26:39.096Z,101798.88
2023-01-03T21:29:08.993Z,101785.47
2023-01-03T21:31:38.836Z,101783.19
2023-01-03T21:34:17.331Z,101790.22
2023-01-03T21:36:46.840Z,101795.19
2023-01-03T21:39:16.624Z,101766.84
2023-01-03T21:41:58.831Z,101760.19
2023-01-03T21:44:28.386Z,101764.94
2023-01-03T21:46:57.889Z,101746.66
2023-01-03T21:49:29.922Z,101744.75
2023-01-03T21:51:59.513Z,101734.00
2023-01-03T21:54:29.284Z,101723.66
2023-01-03T21:56:58.770Z,101727.59
2023-01-03T21:59:28.273Z,101712.03
2023-01-03T22:02:10.382Z,101705.38
2023-01-03T22:04:42.590Z,101709.06
2023-01-03T22:07:12.026Z,101698.22
2023-01-03T22:09:54.045Z,101696.28
2023-01-03T22:12:23.622Z,101701.25
2023-01-03T22:14:53.137Z,101711.38
2023-01-03T22:17:22.718Z,101703.19
2023-01-03T22:19:54.805Z,101698.06
2023-01-03T22:22:24.300Z,101691.19
2023-01-03T22:24:53.899Z,101690.81
2023-01-03T22:27:23.407Z,101686.56
2023-01-03T22:29:52.962Z,101673.00
2023-01-03T22:32:25.415Z,101676.34
2023-01-03T22:34:57.467Z,101675.47
2023-01-03T22:37:27.259Z,101663.69
2023-01-03T22:39:56.735Z,101668.69
2023-01-03T22:42:26.289Z,101657.66
2023-01-03T22:44:55.817Z,101661.78
2023-01-03T22:47:25.300Z,101664.19
2023-01-03T22:49:57.486Z,101666.53
2023-01-03T22:52:27.011Z,101664.63
2023-01-03T22:54:56.477Z,101667.31
2023-01-03T22:57:26.101Z,101673.78
2023-01-03T22:59:55.499Z,101657.31
2023-01-03T23:02:29.061Z,101645.03
2023-01-03T23:05:01.540Z,101657.81
2023-01-03T23:07:31.066Z,101662.69
2023-01-03T23:10:00.553Z,101647.59
2023-01-03T23:12:42.507Z,101646.06
2023-01-03T23:15:12.627Z,101642.97
2023-01-03T23:17:54.706Z,101643.47
2023-01-03T23:20:27.643Z,101632.84
2023-01-03T23:22:59.955Z,101635.16
2023-01-03T23:25:29.767Z,101632.59
2023-01-03T23:27:59.466Z,101621.72
2023-01-03T23:30:29.324Z,101613.28
2023-01-03T23:32:58.880Z,101616.47
2023-01-03T23:35:30.964Z,101624.91
2023-01-03T23:38:00.485Z,101620.16
2023-01-03T23:40:30.003Z,101613.59
2023-01-03T23:42:59.518Z,101616.28
2023-01-03T23:45:29.099Z,101612.09
2023-01-03T23:47:58.590Z,101612.44
2023-01-03T23:50:30.907Z,101613.44
2023-01-03T23:53:00.770Z,101616.50
2023-01-03T23:55:30.355Z,101614.22
2023-01-03T23:57:59.907Z,101626.66
